Time;durP1;ratioP1;P1;durP2;ratioP2;P2;SDS_P1;SDS_P2;PMS_P1;PMS_P2;Temp;Humidity;BMP_temperature;BMP_pressure;BME280_temperature;BME280_humidity;BME280_pressure;Samples;Min_cycle;Max_cycle;Signal;HPM_P1;HPM_P2
2023/04/18 00:02:01;;;;;;;9.30;6.70;;;15.30;75.90;;;;;;5018173;28;20217;-88
2023/04/18 00:04:32;;;;;;;7.67;6.87;;;15.30;76.00;;;;;;5034450;28;20439;-87
2023/04/18 00:06:58;;;;;;;7.80;6.10;;;15.30;76.00;;;;;;5034677;28;20404;-87
2023/04/18 00:09:24;;;;;;;7.83;6.23;;;15.20;75.80;;;;;;5001838;28;20423;-87
2023/04/18 00:16:07;;;;;;;7.57;6.47;;;15.20;75.90;;;;;;5035666;28;20474;-88
2023/04/18 00:18:35;;;;;;;7.87;6.50;;;15.20;75.60;;;;;;5018253;28;20747;-88
2023/04/18 00:21:02;;;;;;;7.23;6.50;;;15.20;75.70;;;;;;5018586;28;20433;-86
2023/04/18 00:23:29;;;;;;;7.67;6.57;;;15.10;75.70;;;;;;5018127;28;20528;-88
2023/04/18 00:25:57;;;;;;;8.37;6.27;;;15.20;75.80;;;;;;5001748;28;20750;-87
2023/04/18 00:28:23;;;;;;;8.30;6.10;;;15.10;75.70;;;;;;5017955;28;20793;-88
2023/04/18 00:30:49;;;;;;;8.70;6.73;;;15.10;75.70;;;;;;5017995;28;20434;-88
2023/04/18 00:33:15;;;;;;;8.20;6.13;;;15.10;75.80;;;;;;5001522;28;20434;-87
2023/04/18 00:35:41;;;;;;;7.70;6.90;;;15.10;76.00;;;;;;5001505;28;20430;-89
2023/04/18 00:38:07;;;;;;;7.57;6.70;;;15.10;76.10;;;;;;5001349;28;20455;-88
2023/04/18 00:40:33;;;;;;;9.00;6.43;;;15.00;76.10;;;;;;5035036;28;20409;-88
2023/04/18 00:42:59;;;;;;;6.87;6.20;;;15.00;76.10;;;;;;5001373;28;20481;-88
2023/04/18 00:45:25;;;;;;;7.27;6.47;;;15.00;76.20;;;;;;5017516;28;20455;-87
2023/04/18 00:47:51;;;;;;;8.50;6.93;;;15.00;76.20;;;;;;5017782;28;20458;-87
2023/04/18 00:50:18;;;;;;;7.70;6.13;;;15.00;76.30;;;;;;5016800;28;20179;-87
2023/04/18 00:52:45;;;;;;;8.70;6.57;;;15.00;76.50;;;;;;5001260;28;20501;-87
2023/04/18 00:55:11;;;;;;;8.10;6.33;;;14.90;76.40;;;;;;5017445;28;20522;-87
2023/04/18 00:57:37;;;;;;;7.33;6.63;;;14.90;76.50;;;;;;5001272;28;20430;-87
2023/04/18 01:00:09;;;;;;;10.33;7.07;;;14.90;76.70;;;;;;5018060;28;20863;-87
2023/04/18 01:02:39;;;;;;;8.20;6.40;;;14.90;76.80;;;;;;5033819;28;20441;-87
2023/04/18 01:05:06;;;;;;;7.73;6.53;;;14.90;76.90;;;;;;5033792;28;20422;-88
2023/04/18 01:07:34;;;;;;;7.60;6.73;;;14.90;77.10;;;;;;5017526;28;20473;-87
2023/04/18 01:10:00;;;;;;;8.27;6.13;;;14.90;77.20;;;;;;5017611;28;20439;-89
2023/04/18 01:12:29;;;;;;;11.50;7.17;;;14.80;77.30;;;;;;5000734;28;20437;-87
2023/04/18 01:14:59;;;;;;;7.43;6.73;;;14.80;77.40;;;;;;5016998;28;20797;-86
2023/04/18 01:17:28;;;;;;;10.43;6.70;;;14.80;77.50;;;;;;5001010;28;20419;-87
2023/04/18 01:20:00;;;;;;;7.33;6.50;;;14.80;77.60;;;;;;5033818;28;20803;-87
2023/04/18 01:22:27;;;;;;;7.47;6.37;;;14.80;77.80;;;;;;5017353;28;20495;-87
2023/04/18 01:24:53;;;;;;;8.30;6.90;;;14.80;77.90;;;;;;5033758;28;20414;-87
2023/04/18 01:27:19;;;;;;;7.07;6.30;;;14.70;77.90;;;;;;5001293;28;20757;-87
2023/04/18 01:29:45;;;;;;;7.60;6.47;;;14.70;78.00;;;;;;5001237;28;20441;-87
2023/04/18 01:32:11;;;;;;;8.00;7.20;;;14.70;78.10;;;;;;5017109;28;20495;-87
2023/04/18 01:34:37;;;;;;;6.27;5.63;;;14.70;78.20;;;;;;5017319;28;20158;-87
2023/04/18 01:37:07;;;;;;;7.20;6.50;;;14.70;78.30;;;;;;5034536;28;20415;-88
2023/04/18 01:39:33;;;;;;;7.53;6.10;;;14.70;78.50;;;;;;5033292;28;20424;-88
2023/04/18 01:42:00;;;;;;;8.97;6.50;;;14.60;78.50;;;;;;5033343;28;20575;-86
2023/04/18 01:44:26;;;;;;;7.67;6.30;;;14.60;78.60;;;;;;5017478;28;20429;-88
2023/04/18 01:46:52;;;;;;;6.43;5.93;;;14.60;78.70;;;;;;5017251;28;20927;-87
2023/04/18 01:49:18;;;;;;;9.10;7.37;;;14.60;78.80;;;;;;5017086;28;20164;-87
2023/04/18 01:51:44;;;;;;;7.27;6.57;;;14.60;78.90;;;;;;5017035;28;20453;-86
2023/04/18 01:54:12;;;;;;;7.23;5.73;;;14.60;79.00;;;;;;5017069;28;20176;-88
2023/04/18 01:56:38;;;;;;;8.93;6.27;;;14.60;79.10;;;;;;5017361;28;20432;-86
2023/04/18 01:59:04;;;;;;;7.50;6.33;;;14.50;79.00;;;;;;5017059;28;20436;-87
2023/04/18 02:01:29;;;;;;;7.10;6.03;;;14.50;79.10;;;;;;5018300;28;20233;-87
2023/04/18 02:03:57;;;;;;;7.27;6.00;;;14.50;79.20;;;;;;5036984;28;20404;-87
2023/04/18 02:06:23;;;;;;;7.13;6.00;;;14.50;79.30;;;;;;5020631;28;20517;-88
2023/04/18 02:08:49;;;;;;;7.10;6.20;;;14.50;79.40;;;;;;5020500;28;20426;-87
2023/04/18 02:11:17;;;;;;;6.90;5.80;;;14.50;79.50;;;;;;5021133;28;20419;-87
2023/04/18 02:13:44;;;;;;;8.13;6.43;;;14.40;79.50;;;;;;5020232;28;20439;-87
2023/04/18 02:16:16;;;;;;;8.10;7.30;;;14.50;79.70;;;;;;5004018;28;20477;-87
2023/04/18 02:18:43;;;;;;;6.77;6.17;;;14.40;79.70;;;;;;5036941;28;20407;-87
2023/04/18 02:21:10;;;;;;;7.20;6.30;;;14.40;79.70;;;;;;5003918;28;20455;-88
2023/04/18 02:23:36;;;;;;;7.47;6.70;;;14.40;79.90;;;;;;5003838;28;20772;-87
2023/04/18 02:26:01;;;;;;;8.60;6.47;;;14.40;79.90;;;;;;5020407;28;20420;-87
2023/04/18 02:28:27;;;;;;;13.30;5.70;;;14.40;80.00;;;;;;5020333;28;20967;-87
2023/04/18 02:30:53;;;;;;;6.93;5.90;;;14.30;80.00;;;;;;5003765;28;20448;-87
2023/04/18 02:33:19;;;;;;;7.07;5.93;;;14.40;80.20;;;;;;5020181;28;20461;-87
2023/04/18 02:35:45;;;;;;;8.07;5.90;;;14.30;80.10;;;;;;5020234;28;20187;-87
2023/04/18 02:38:12;;;;;;;7.60;6.10;;;14.30;80.20;;;;;;5019945;28;20354;-86
2023/04/18 02:40:51;;;;;;;7.80;5.80;;;14.30;80.30;;;;;;5018434;28;20477;-86
2023/04/18 02:43:16;;;;;;;7.60;6.03;;;14.30;80.40;;;;;;5036309;28;20491;-87
2023/04/18 02:45:42;;;;;;;8.60;5.97;;;14.30;80.40;;;;;;5036271;28;20204;-87
2023/04/18 02:48:08;;;;;;;6.17;5.57;;;14.30;80.50;;;;;;5019976;28;20427;-88
2023/04/18 02:50:35;;;;;;;5.93;5.07;;;14.30;80.60;;;;;;5036155;28;20502;-87
2023/04/18 02:53:01;;;;;;;7.80;6.03;;;14.30;80.60;;;;;;5003300;28;21038;-87
2023/04/18 02:55:44;;;;;;;6.47;5.47;;;14.20;80.50;;;;;;5004321;28;20419;-87
2023/04/18 02:58:12;;;;;;;6.83;5.83;;;14.20;80.70;;;;;;5020441;28;20909;-88
2023/04/18 03:00:59;;;;;;;6.13;4.80;;;14.20;80.80;;;;;;5025923;28;20551;-87
2023/04/18 03:03:47;;;;;;;6.63;5.00;;;14.20;80.90;;;;;;5002998;28;20535;-88
2023/04/18 03:06:42;;;;;;;5.47;4.93;;;14.10;80.90;;;;;;4995605;28;20565;-88
2023/04/18 03:09:09;;;;;;;5.60;5.03;;;14.10;80.90;;;;;;4987293;28;20526;-87
2023/04/18 03:11:39;;;;;;;9.50;5.57;;;14.10;80.90;;;;;;5003260;28;20507;-87
2023/04/18 03:14:05;;;;;;;6.63;5.70;;;14.10;81.00;;;;;;5034964;28;20514;-87
2023/04/18 03:16:47;;;;;;;5.00;4.53;;;14.10;81.10;;;;;;5035728;28;20182;-88
2023/04/18 03:19:18;;;;;;;5.73;5.17;;;14.10;81.10;;;;;;5019256;28;20486;-88
2023/04/18 03:21:44;;;;;;;5.20;4.70;;;14.00;81.10;;;;;;5002957;28;20565;-89
2023/04/18 03:24:11;;;;;;;5.80;5.20;;;14.00;81.10;;;;;;5035607;28;20771;-86
2023/04/18 03:26:37;;;;;;;5.73;4.90;;;14.00;81.10;;;;;;5019534;28;20882;-88
2023/04/18 03:29:03;;;;;;;6.47;4.90;;;14.00;81.30;;;;;;5003026;28;20975;-86
2023/04/18 03:31:30;;;;;;;4.60;4.20;;;14.00;81.30;;;;;;5002850;28;20415;-87
2023/04/18 03:33:56;;;;;;;5.13;4.73;;;14.00;81.30;;;;;;5002745;28;20743;-87
2023/04/18 03:36:24;;;;;;;5.73;4.90;;;13.90;81.30;;;;;;5035374;28;20437;-87
2023/04/18 03:38:52;;;;;;;5.37;4.73;;;13.90;81.30;;;;;;4998548;28;20204;-88
2023/04/18 03:41:20;;;;;;;5.10;4.30;;;13.90;81.30;;;;;;5014597;28;20464;-87
2023/04/18 03:43:48;;;;;;;4.67;4.20;;;13.90;81.40;;;;;;5014598;28;20427;-88
2023/04/18 03:46:14;;;;;;;5.97;4.57;;;13.90;81.40;;;;;;4998323;28;20420;-87
2023/04/18 03:48:40;;;;;;;5.93;4.60;;;13.90;81.40;;;;;;4981826;28;20420;-87
2023/04/18 03:51:09;;;;;;;4.77;4.27;;;13.90;81.50;;;;;;4998125;28;20861;-87
2023/04/18 03:53:37;;;;;;;5.00;4.50;;;13.90;81.60;;;;;;4998002;28;20531;-87
2023/04/18 03:56:02;;;;;;;6.50;4.87;;;13.90;81.60;;;;;;4998145;28;20422;-86
2023/04/18 03:58:44;;;;;;;6.60;4.70;;;13.80;81.60;;;;;;4998044;28;20458;-87
2023/04/18 04:01:11;;;;;;;5.27;4.77;;;13.80;81.60;;;;;;5014219;28;20414;-87
2023/04/18 04:03:37;;;;;;;4.70;4.30;;;13.80;81.70;;;;;;4997702;28;20845;-87
2023/04/18 04:06:05;;;;;;;5.93;4.50;;;13.80;81.70;;;;;;5014181;28;20493;-87
2023/04/18 04:08:31;;;;;;;4.63;4.13;;;13.80;81.70;;;;;;5014285;28;20525;-86
2023/04/18 04:10:59;;;;;;;6.03;4.30;;;13.80;81.80;;;;;;5033943;28;20982;-87
2023/04/18 04:13:25;;;;;;;5.40;4.90;;;13.80;81.80;;;;;;5017344;28;20943;-86
2023/04/18 04:15:51;;;;;;;5.10;4.60;;;13.80;81.70;;;;;;5026410;28;20759;-87
2023/04/18 04:18:17;;;;;;;6.23;4.83;;;13.80;81.80;;;;;;5038218;28;20417;-87
2023/04/18 04:20:44;;;;;;;4.73;4.23;;;13.70;82.60;;;;;;5037959;28;20434;-87
2023/04/18 04:23:25;;;;;;;5.60;4.20;;;13.70;81.90;;;;;;5021860;28;20429;-87
2023/04/18 04:25:52;;;;;;;5.00;4.50;;;13.70;81.90;;;;;;5054522;28;20403;-87
2023/04/18 04:28:35;;;;;;;5.20;4.70;;;13.70;82.00;;;;;;5046775;28;20427;-88
2023/04/18 04:31:07;;;;;;;5.30;4.40;;;13.70;82.00;;;;;;5001307;28;20945;-86
2023/04/18 04:33:34;;;;;;;4.83;4.30;;;13.70;82.10;;;;;;5001632;28;20912;-87
2023/04/18 04:36:07;;;;;;;5.20;4.30;;;13.60;82.10;;;;;;5001486;28;20454;-87
2023/04/18 04:38:37;;;;;;;4.20;3.80;;;13.60;82.10;;;;;;5001421;28;20987;-87
2023/04/18 04:41:08;;;;;;;5.50;4.80;;;13.60;82.20;;;;;;5017974;28;20468;-86
2023/04/18 04:43:35;;;;;;;5.37;4.07;;;13.60;82.30;;;;;;5001452;28;20434;-86
2023/04/18 04:46:03;;;;;;;4.90;4.43;;;13.60;82.30;;;;;;5001829;28;20728;-87
2023/04/18 04:48:28;;;;;;;4.60;4.20;;;13.60;82.40;;;;;;5017823;28;20426;-87
2023/04/18 04:50:56;;;;;;;5.63;4.60;;;13.60;83.20;;;;;;5001056;28;20433;-86
2023/04/18 04:53:24;;;;;;;4.90;4.20;;;13.60;82.50;;;;;;5001143;28;20967;-87
2023/04/18 04:55:53;;;;;;;6.00;4.73;;;13.50;82.40;;;;;;5001298;28;20485;-88
2023/04/18 04:58:19;;;;;;;5.70;4.80;;;13.50;82.60;;;;;;5017722;28;20500;-88
2023/04/18 05:01:06;;;;;;;4.83;4.43;;;13.50;82.60;;;;;;5018038;28;20442;-88
2023/04/18 05:03:33;;;;;;;5.00;4.50;;;13.50;82.60;;;;;;5017512;28;20440;-88
2023/04/18 05:05:59;;;;;;;5.00;4.50;;;13.50;82.80;;;;;;5017776;28;20472;-88
2023/04/18 05:08:29;;;;;;;5.43;4.93;;;13.40;82.70;;;;;;5001643;28;20429;-88
2023/04/18 05:10:57;;;;;;;5.17;4.63;;;13.40;82.90;;;;;;5001154;28;20486;-87
2023/04/18 05:13:23;;;;;;;4.93;4.53;;;13.50;83.00;;;;;;5017375;28;20561;-87
2023/04/18 05:15:51;;;;;;;6.60;4.80;;;13.40;83.00;;;;;;5001372;28;20537;-87
2023/04/18 05:18:17;;;;;;;6.30;5.70;;;13.40;83.10;;;;;;5001174;28;20745;-87
2023/04/18 05:20:43;;;;;;;5.03;4.57;;;13.40;83.20;;;;;;5017257;28;21084;-88
2023/04/18 05:23:09;;;;;;;5.17;4.77;;;13.40;83.30;;;;;;5017561;28;20443;-87
2023/04/18 05:25:35;;;;;;;5.37;4.87;;;13.40;83.40;;;;;;5017477;28;20664;-87
2023/04/18 05:28:03;;;;;;;5.73;5.23;;;13.40;83.50;;;;;;5017411;28;20425;-87
2023/04/18 05:30:29;;;;;;;5.57;5.07;;;13.40;83.60;;;;;;5001014;28;20430;-87
2023/04/18 05:32:55;;;;;;;6.90;6.17;;;13.30;83.50;;;;;;5015524;28;20330;-87
2023/04/18 05:35:23;;;;;;;6.43;5.47;;;13.30;84.40;;;;;;5000968;28;20487;-87
2023/04/18 05:37:50;;;;;;;6.90;6.20;;;13.30;83.70;;;;;;5020655;28;20166;-87
2023/04/18 05:40:18;;;;;;;5.80;5.20;;;13.30;83.80;;;;;;5005143;28;20433;-87
2023/04/18 05:42:44;;;;;;;6.60;5.20;;;13.30;83.90;;;;;;5021319;28;20438;-87
2023/04/18 05:45:10;;;;;;;6.53;5.93;;;13.30;84.00;;;;;;5038660;28;20424;-87
2023/04/18 05:47:36;;;;;;;8.00;7.17;;;13.30;84.10;;;;;;5021164;28;20477;-87
2023/04/18 05:50:05;;;;;;;8.97;7.10;;;13.30;84.20;;;;;;5004928;28;20407;-87
2023/04/18 05:52:33;;;;;;;6.60;6.00;;;13.30;84.30;;;;;;5021184;28;20467;-87
2023/04/18 05:54:59;;;;;;;7.30;6.60;;;13.30;85.20;;;;;;5020899;28;20465;-87
2023/04/18 05:57:27;;;;;;;6.47;5.87;;;13.30;85.30;;;;;;5004569;28;20428;-87
2023/04/18 05:59:53;;;;;;;6.60;6.00;;;13.30;84.60;;;;;;5037165;28;21774;-87
2023/04/18 06:02:19;;;;;;;6.87;6.03;;;13.30;84.70;;;;;;5020768;28;20497;-87
2023/04/18 06:04:45;;;;;;;7.73;6.50;;;13.20;84.60;;;;;;5020650;28;20182;-86
2023/04/18 06:07:11;;;;;;;7.97;6.50;;;13.20;84.70;;;;;;5004322;28;20456;-87
2023/04/18 06:09:37;;;;;;;8.60;6.90;;;13.20;84.80;;;;;;5020904;28;20649;-87
2023/04/18 06:12:03;;;;;;;11.23;6.50;;;13.20;84.80;;;;;;5020580;28;20475;-86
2023/04/18 06:14:29;;;;;;;6.87;6.27;;;13.20;84.90;;;;;;5037787;28;20416;-87
2023/04/18 06:16:58;;;;;;;8.07;6.50;;;13.20;85.00;;;;;;5004396;28;20516;-87
2023/04/18 06:19:24;;;;;;;7.20;6.50;;;13.20;85.10;;;;;;5004145;28;20446;-87
2023/04/18 06:21:50;;;;;;;6.80;6.10;;;13.20;85.10;;;;;;5020255;28;20419;-87
2023/04/18 06:24:16;;;;;;;6.67;6.00;;;13.20;85.20;;;;;;5020307;28;20800;-87
2023/04/18 06:26:42;;;;;;;9.60;7.30;;;13.20;85.30;;;;;;5003901;28;20477;-86
2023/04/18 06:29:08;;;;;;;7.17;6.47;;;13.10;85.30;;;;;;5037685;28;20606;-86
2023/04/18 06:31:34;;;;;;;7.37;5.77;;;13.20;85.50;;;;;;5020132;28;20527;-86
2023/04/18 06:34:00;;;;;;;9.47;6.60;;;13.10;85.50;;;;;;5003845;28;20417;-86
2023/04/18 06:36:26;;;;;;;6.77;6.13;;;13.10;85.50;;;;;;5020117;28;20185;-87
2023/04/18 06:38:52;;;;;;;6.43;5.70;;;13.10;85.60;;;;;;5020260;28;20201;-86
2023/04/18 06:41:18;;;;;;;8.00;6.40;;;13.10;85.70;;;;;;5003731;28;20434;-87
2023/04/18 06:43:44;;;;;;;7.37;6.63;;;13.10;85.70;;;;;;5019944;28;20442;-87
2023/04/18 06:46:11;;;;;;;7.60;6.47;;;13.20;85.80;;;;;;5019969;28;20165;-87
2023/04/18 06:48:37;;;;;;;8.23;5.47;;;13.10;85.80;;;;;;5002442;28;20453;-87
2023/04/18 06:51:03;;;;;;;6.90;6.17;;;13.10;85.80;;;;;;5036876;28;20462;-87
2023/04/18 06:53:29;;;;;;;8.17;5.73;;;13.10;85.90;;;;;;5003720;28;20431;-87
2023/04/18 06:55:55;;;;;;;7.87;6.00;;;13.20;86.00;;;;;;5003945;28;20424;-87
2023/04/18 06:58:24;;;;;;;6.30;5.37;;;13.10;86.00;;;;;;5003868;28;20808;-87
2023/04/18 07:00:50;;;;;;;6.63;6.03;;;13.10;86.00;;;;;;5019713;28;20505;-87
2023/04/18 07:03:18;;;;;;;7.13;6.43;;;13.10;86.00;;;;;;4999851;28;20533;-87
2023/04/18 07:05:45;;;;;;;6.90;6.20;;;13.20;86.10;;;;;;5017133;28;20419;-86
2023/04/18 07:08:11;;;;;;;7.97;7.17;;;13.20;86.20;;;;;;5016294;28;20439;-87
2023/04/18 07:10:37;;;;;;;8.17;7.33;;;13.20;86.20;;;;;;5016187;28;20881;-87
2023/04/18 07:13:03;;;;;;;10.20;8.40;;;13.20;86.10;;;;;;4999943;28;20476;-87
2023/04/18 07:15:33;;;;;;;8.90;8.00;;;13.20;86.10;;;;;;5016974;28;20199;-87
2023/04/18 07:18:01;;;;;;;9.00;8.10;;;13.20;86.10;;;;;;5015962;28;20424;-86
2023/04/18 07:20:27;;;;;;;7.47;6.77;;;13.20;86.10;;;;;;5000026;28;20472;-86
2023/04/18 07:22:53;;;;;;;8.50;6.80;;;13.20;86.10;;;;;;5015830;28;20916;-87
2023/04/18 07:25:19;;;;;;;11.00;7.50;;;13.20;86.20;;;;;;4999737;28;20192;-86
2023/04/18 07:27:45;;;;;;;8.53;6.80;;;13.20;86.20;;;;;;4999632;28;20456;-87
2023/04/18 07:30:12;;;;;;;7.53;6.73;;;13.20;86.30;;;;;;5015814;28;20281;-87
2023/04/18 07:32:38;;;;;;;7.00;6.30;;;13.20;86.30;;;;;;4999326;28;20528;-87
2023/04/18 07:35:04;;;;;;;9.90;7.50;;;13.20;86.40;;;;;;5015820;28;20934;-87
2023/04/18 07:37:30;;;;;;;8.07;7.27;;;13.20;86.40;;;;;;4999341;28;20749;-86
2023/04/18 07:39:57;;;;;;;8.97;8.03;;;13.20;86.50;;;;;;5015920;28;20720;-86
2023/04/18 07:42:26;;;;;;;9.10;7.30;;;13.20;86.50;;;;;;4983289;28;20434;-86
2023/04/18 07:44:57;;;;;;;8.37;7.10;;;13.20;86.70;;;;;;5015467;28;20432;-86
2023/04/18 07:47:25;;;;;;;9.03;6.77;;;13.20;86.70;;;;;;4998991;28;20938;-86
2023/04/18 07:49:51;;;;;;;7.63;6.73;;;13.20;86.80;;;;;;4999300;28;20504;-88
2023/04/18 07:52:17;;;;;;;9.93;7.50;;;13.20;86.90;;;;;;4998848;28;20480;-86
2023/04/18 07:54:43;;;;;;;7.80;7.00;;;13.20;87.00;;;;;;4999401;28;20441;-86
2023/04/18 07:57:11;;;;;;;8.10;7.00;;;13.20;87.10;;;;;;5015559;28;20418;-86
2023/04/18 07:59:40;;;;;;;8.03;7.00;;;13.20;87.20;;;;;;5014720;28;20448;-86
2023/04/18 08:02:06;;;;;;;8.93;6.70;;;13.20;87.20;;;;;;4999234;28;20523;-87
2023/04/18 08:04:32;;;;;;;7.17;6.47;;;13.20;87.30;;;;;;5015110;28;20431;-86
2023/04/18 08:06:58;;;;;;;7.70;6.73;;;13.10;87.30;;;;;;5015036;28;20460;-86
2023/04/18 08:09:24;;;;;;;8.20;6.10;;;13.20;87.50;;;;;;4999309;28;20906;-86
2023/04/18 08:11:54;;;;;;;8.10;6.80;;;13.10;87.40;;;;;;4998507;28;20490;-85
2023/04/18 08:14:19;;;;;;;9.93;8.00;;;13.10;87.50;;;;;;5016035;28;20417;-86
2023/04/18 08:16:45;;;;;;;7.47;5.97;;;13.10;87.60;;;;;;4998693;28;20438;-86
2023/04/18 08:19:11;;;;;;;6.23;5.63;;;13.10;87.70;;;;;;4998669;28;20437;-86
2023/04/18 08:21:38;;;;;;;6.87;6.20;;;13.20;87.80;;;;;;5014870;28;20766;-86
2023/04/18 08:24:04;;;;;;;6.97;6.27;;;13.10;87.70;;;;;;5015658;28;20499;-87
2023/04/18 08:26:32;;;;;;;8.03;6.20;;;13.20;87.90;;;;;;4998875;28;20567;-86
2023/04/18 08:29:01;;;;;;;8.73;6.97;;;13.10;88.00;;;;;;4998414;28;20420;-86
2023/04/18 08:31:27;;;;;;;8.27;6.53;;;13.10;88.10;;;;;;4998272;28;20465;-87
2023/04/18 08:33:53;;;;;;;7.93;6.47;;;13.20;88.40;;;;;;4998204;28;20416;-86
2023/04/18 08:36:20;;;;;;;7.87;6.50;;;13.10;88.20;;;;;;4998603;28;20874;-86
2023/04/18 08:38:50;;;;;;;8.17;7.00;;;13.20;88.40;;;;;;4998674;28;20432;-86
2023/04/18 08:41:21;;;;;;;7.70;6.67;;;13.20;88.40;;;;;;5014407;28;20888;-87
2023/04/18 08:43:47;;;;;;;8.13;6.60;;;13.10;88.40;;;;;;4998031;28;20669;-86
2023/04/18 08:46:15;;;;;;;10.60;6.67;;;13.10;88.40;;;;;;4998168;28;20425;-85
2023/04/18 08:48:47;;;;;;;7.37;6.67;;;13.20;88.50;;;;;;5014430;28;20898;-86
2023/04/18 08:51:14;;;;;;;8.30;7.20;;;13.20;88.60;;;;;;5015259;28;20435;-86
2023/04/18 08:53:40;;;;;;;7.20;6.50;;;13.20;88.70;;;;;;4997899;28;20814;-87
2023/04/18 08:56:09;;;;;;;8.03;6.87;;;13.20;88.80;;;;;;5014184;28;20450;-86
2023/04/18 08:58:35;;;;;;;8.33;7.43;;;13.20;88.80;;;;;;4998011;28;20437;-86
2023/04/18 09:01:01;;;;;;;8.70;7.63;;;13.20;88.80;;;;;;4981533;28;20423;-86
2023/04/18 09:03:41;;;;;;;7.83;7.03;;;13.20;88.90;;;;;;5024376;28;20430;-87
2023/04/18 09:06:13;;;;;;;11.10;6.90;;;13.20;88.90;;;;;;5017324;28;20513;-87
2023/04/18 09:08:43;;;;;;;8.83;7.87;;;13.20;89.00;;;;;;5001044;28;20458;-87
2023/04/18 09:11:21;;;;;;;8.30;6.10;;;13.20;89.20;;;;;;5033135;28;20429;-86
2023/04/18 09:13:49;;;;;;;7.57;6.83;;;13.20;89.30;;;;;;5033836;28;20444;-85
2023/04/18 09:16:19;;;;;;;9.37;7.33;;;13.20;89.30;;;;;;5017514;28;20454;-86
2023/04/18 09:19:16;;;;;;;8.40;7.37;;;13.20;89.40;;;;;;5001330;28;20427;-87
2023/04/18 09:21:45;;;;;;;8.27;7.47;;;13.20;89.30;;;;;;5017800;28;20469;-87
2023/04/18 09:24:19;;;;;;;10.03;7.30;;;13.20;89.30;;;;;;5017427;28;20437;-86
2023/04/18 09:26:48;;;;;;;8.17;7.17;;;13.20;89.30;;;;;;5033760;28;20443;-86
2023/04/18 09:29:17;;;;;;;8.70;7.33;;;13.20;89.40;;;;;;5001101;28;20440;-87
2023/04/18 09:31:59;;;;;;;9.10;7.33;;;13.20;89.40;;;;;;5001001;28;21002;-87
2023/04/18 09:34:27;;;;;;;8.13;7.33;;;13.20;89.50;;;;;;5001003;28;20433;-87
2023/04/18 09:37:10;;;;;;;10.97;8.43;;;13.20;89.60;;;;;;5033639;28;20499;-86
2023/04/18 09:39:38;;;;;;;8.37;7.03;;;13.20;89.60;;;;;;5017447;28;20507;-87
2023/04/18 09:42:04;;;;;;;9.63;7.77;;;13.20;89.60;;;;;;5017255;28;20445;-87
2023/04/18 09:44:31;;;;;;;8.97;7.50;;;13.20;89.80;;;;;;5001292;28;20435;-86
2023/04/18 09:46:57;;;;;;;7.77;6.97;;;13.20;89.90;;;;;;5017432;28;20568;-86
2023/04/18 09:49:26;;;;;;;11.00;8.20;;;13.10;89.90;;;;;;5001000;28;20433;-86
2023/04/18 09:51:54;;;;;;;9.80;8.03;;;13.20;90.10;;;;;;5016811;28;20539;-88
2023/04/18 09:54:23;;;;;;;8.57;7.67;;;13.20;90.10;;;;;;5033294;28;20501;-85
2023/04/18 09:56:54;;;;;;;8.67;7.60;;;13.20;90.10;;;;;;5017505;28;20437;-88
2023/04/18 09:59:49;;;;;;;7.93;7.13;;;13.10;90.10;;;;;;5001014;28;20964;-87
2023/04/18 10:02:21;;;;;;;9.80;7.40;;;13.20;90.20;;;;;;5000616;28;20433;-87
2023/04/18 10:04:51;;;;;;;8.40;7.50;;;13.20;90.30;;;;;;5000635;28;20462;-86
2023/04/18 10:07:17;;;;;;;9.13;7.50;;;13.20;90.30;;;;;;5017067;28;20415;-87
2023/04/18 10:09:47;;;;;;;8.80;7.77;;;13.20;90.30;;;;;;4984562;28;20439;-87
2023/04/18 10:12:16;;;;;;;8.43;7.37;;;13.20;90.40;;;;;;5016901;28;20453;-86
2023/04/18 10:14:45;;;;;;;9.33;8.20;;;13.20;90.40;;;;;;5000694;28;20429;-86
2023/04/18 10:17:13;;;;;;;9.53;7.33;;;13.20;90.50;;;;;;5000201;28;20467;-87
2023/04/18 10:19:40;;;;;;;10.80;8.10;;;13.20;90.50;;;;;;5000726;28;20434;-85
2023/04/18 10:22:07;;;;;;;11.17;7.83;;;13.20;90.50;;;;;;5017366;28;20456;-86
2023/04/18 10:24:55;;;;;;;9.73;7.37;;;13.20;90.60;;;;;;5020727;28;20504;-86
2023/04/18 10:27:56;;;;;;;8.20;7.23;;;13.20;90.70;;;;;;4993403;28;20860;-86
2023/04/18 10:30:43;;;;;;;10.00;7.60;;;13.20;90.70;;;;;;4961095;28;20538;-86
2023/04/18 10:33:37;;;;;;;9.17;7.50;;;13.20;90.70;;;;;;4976926;28;20478;-86
2023/04/18 10:36:10;;;;;;;9.63;8.20;;;13.30;90.80;;;;;;4993130;28;20453;-86
2023/04/18 10:38:55;;;;;;;10.80;8.20;;;13.30;90.80;;;;;;4960957;28;20430;-87
2023/04/18 10:41:25;;;;;;;9.80;8.40;;;13.30;90.80;;;;;;4977087;28;20444;-86
2023/04/18 10:44:09;;;;;;;9.57;7.50;;;13.30;90.90;;;;;;4960684;28;20828;-85
2023/04/18 10:46:40;;;;;;;13.97;7.30;;;13.30;90.90;;;;;;4960762;28;20522;-87
2023/04/18 10:49:19;;;;;;;8.37;7.27;;;13.30;91.20;;;;;;4977124;28;20508;-88
2023/04/18 10:51:46;;;;;;;10.93;7.87;;;13.40;90.80;;;;;;4960500;28;20476;-87
2023/04/18 10:54:21;;;;;;;10.77;7.57;;;13.40;90.80;;;;;;4976535;28;20451;-86
2023/04/18 10:56:55;;;;;;;11.13;8.30;;;13.40;90.90;;;;;;4960523;28;20476;-86
2023/04/18 10:59:23;;;;;;;9.03;7.07;;;13.40;90.90;;;;;;5031327;28;20442;-86
2023/04/18 11:02:03;;;;;;;10.30;7.03;;;13.40;90.90;;;;;;5004016;28;20425;-86
2023/04/18 11:04:29;;;;;;;8.63;7.20;;;13.40;90.90;;;;;;5003272;28;20512;-86
2023/04/18 11:06:57;;;;;;;9.70;7.77;;;13.50;90.80;;;;;;5004629;28;20475;-87
2023/04/18 11:09:24;;;;;;;9.33;7.20;;;13.50;90.90;;;;;;5019535;28;20428;-87
2023/04/18 11:12:12;;;;;;;10.80;7.67;;;13.50;90.80;;;;;;5003179;28;20471;-87
2023/04/18 11:14:42;;;;;;;8.37;6.67;;;13.50;90.70;;;;;;5003198;28;20519;-86
2023/04/18 11:17:25;;;;;;;10.70;7.63;;;13.60;90.80;;;;;;5035908;28;20402;-86
2023/04/18 11:20:07;;;;;;;12.20;8.70;;;13.60;90.70;;;;;;5019348;28;20443;-87
2023/04/18 11:22:49;;;;;;;9.80;7.33;;;13.60;90.80;;;;;;5019468;28;20473;-88
2023/04/18 11:25:19;;;;;;;10.43;7.73;;;13.60;90.80;;;;;;5019303;28;20450;-88
2023/04/18 11:27:46;;;;;;;9.80;8.30;;;13.70;90.90;;;;;;5019247;28;20742;-86
2023/04/18 11:30:13;;;;;;;10.00;8.03;;;13.70;90.90;;;;;;5035559;28;20416;-87
2023/04/18 11:32:40;;;;;;;8.90;6.50;;;13.80;91.00;;;;;;5002675;28;20469;-87
2023/04/18 11:35:10;;;;;;;10.00;7.80;;;13.80;91.00;;;;;;5018384;28;20415;-88
2023/04/18 11:37:37;;;;;;;7.53;6.53;;;13.80;90.90;;;;;;5035493;28;20454;-87
2023/04/18 11:40:07;;;;;;;9.47;7.20;;;13.90;90.90;;;;;;5019295;28;20419;-87
2023/04/18 11:42:34;;;;;;;8.00;6.80;;;13.90;90.80;;;;;;5002729;28;20466;-89
2023/04/18 11:45:01;;;;;;;9.00;7.57;;;13.90;90.90;;;;;;5035286;28;20531;-87
2023/04/18 11:47:29;;;;;;;8.77;7.70;;;14.00;90.90;;;;;;5002776;28;20656;-88
2023/04/18 11:50:06;;;;;;;7.93;7.07;;;14.00;91.00;;;;;;5002482;28;20433;-87
2023/04/18 11:52:34;;;;;;;8.20;7.00;;;14.10;90.90;;;;;;5035028;28;20470;-86
2023/04/18 11:55:16;;;;;;;8.47;6.90;;;14.10;90.90;;;;;;5018686;28;20414;-86
2023/04/18 11:57:58;;;;;;;9.70;7.30;;;14.10;90.80;;;;;;5018863;28;20462;-86
2023/04/18 12:00:33;;;;;;;8.13;6.67;;;14.20;90.80;;;;;;5018828;28;20392;-87
2023/04/18 12:03:03;;;;;;;13.33;7.93;;;14.20;90.80;;;;;;5018423;28;20755;-88
2023/04/18 12:05:37;;;;;;;9.87;7.70;;;14.20;90.80;;;;;;5018308;28;20419;-87
2023/04/18 12:08:12;;;;;;;10.67;7.70;;;14.30;90.90;;;;;;5018588;28;20410;-86
2023/04/18 12:10:51;;;;;;;9.27;7.60;;;14.30;90.90;;;;;;5002236;28;20441;-87
2023/04/18 12:13:24;;;;;;;10.97;8.00;;;14.40;91.00;;;;;;5001922;28;20455;-87
2023/04/18 12:15:50;;;;;;;11.07;8.30;;;14.40;91.00;;;;;;5018191;28;20444;-86
2023/04/18 12:18:18;;;;;;;10.57;8.10;;;14.40;90.90;;;;;;5001884;28;20426;-88
2023/04/18 12:20:49;;;;;;;9.90;8.37;;;14.40;90.80;;;;;;5002202;28;20494;-87
2023/04/18 12:23:45;;;;;;;10.30;8.00;;;14.40;90.70;;;;;;5002082;28;20506;-89
2023/04/18 12:26:19;;;;;;;10.87;7.67;;;14.50;90.60;;;;;;5000805;28;20757;-86
2023/04/18 12:28:48;;;;;;;11.80;8.07;;;14.50;90.60;;;;;;5018285;28;20460;-87
2023/04/18 12:31:14;;;;;;;9.77;8.00;;;14.50;90.50;;;;;;5018066;28;20490;-87
2023/04/18 12:33:40;;;;;;;9.27;7.67;;;14.50;90.50;;;;;;5017626;28;20462;-87
2023/04/18 12:36:07;;;;;;;11.30;8.10;;;14.50;90.50;;;;;;5018098;28;20509;-87
2023/04/18 12:38:35;;;;;;;11.20;7.77;;;14.50;90.40;;;;;;5001861;28;20435;-88
2023/04/18 12:41:04;;;;;;;10.03;7.60;;;14.50;90.40;;;;;;5002007;28;20844;-87
2023/04/18 12:43:30;;;;;;;11.03;8.67;;;14.60;90.50;;;;;;4985366;28;20466;-87
2023/04/18 12:45:58;;;;;;;10.07;8.73;;;14.60;90.60;;;;;;5034291;28;20432;-86
2023/04/18 12:48:24;;;;;;;11.30;8.37;;;14.60;90.60;;;;;;5001685;28;20508;-88
2023/04/18 12:50:49;;;;;;;12.30;8.33;;;14.60;90.60;;;;;;5017834;28;20435;-87
2023/04/18 12:53:15;;;;;;;9.50;8.10;;;14.60;90.50;;;;;;5000937;28;20322;-88
2023/04/18 12:55:41;;;;;;;9.57;8.57;;;14.70;90.60;;;;;;5017774;28;20195;-88
2023/04/18 12:58:07;;;;;;;9.97;7.90;;;14.70;90.60;;;;;;5017547;28;20723;-89
2023/04/18 13:00:33;;;;;;;10.13;8.33;;;14.70;90.60;;;;;;5017693;28;20769;-87